Time;durP1;ratioP1;P1;durP2;ratioP2;P2;SDS_P1;SDS_P2;PMS_P1;PMS_P2;Temp;Humidity;BMP_temperature;BMP_pressure;BME280_temperature;BME280_humidity;BME280_pressure;Samples;Min_cycle;Max_cycle;Signal;HPM_P1;HPM_P2
2021/07/17 00:02:23;;;;;;;9.30;7.10;;;;;;;21.61;64.96;98339.59;8319129;28;20202;-92
2021/07/17 00:06:26;;;;;;;12.40;7.03;;;;;;;21.55;64.99;98334.84;8318717;28;20262;-91
2021/07/17 00:10:35;;;;;;;11.23;6.47;;;;;;;21.57;64.80;98339.97;8318370;28;20409;-92
2021/07/17 00:14:39;;;;;;;9.10;7.00;;;;;;;21.53;64.51;98335.91;8318790;28;20208;-91
2021/07/17 00:18:42;;;;;;;10.60;7.53;;;;;;;21.45;64.75;98334.75;8318425;28;20216;-92
2021/07/17 00:22:45;;;;;;;8.00;7.20;;;;;;;21.42;65.07;98344.69;8318023;28;20219;-90
2021/07/17 00:26:48;;;;;;;8.77;7.30;;;;;;;21.46;64.91;98362.78;8321579;28;20199;-90
2021/07/17 00:30:52;;;;;;;15.23;7.87;;;;;;;21.42;64.90;98355.22;8346087;28;20218;-90
2021/07/17 00:34:55;;;;;;;10.03;7.57;;;;;;;21.40;64.63;98355.34;8348289;28;20196;-91
2021/07/17 00:38:58;;;;;;;12.60;7.77;;;;;;;21.30;64.92;98349.16;8348116;28;20250;-90
2021/07/17 00:43:01;;;;;;;10.63;8.13;;;;;;;21.25;65.39;98348.72;8348141;28;20518;-92
2021/07/17 00:47:07;;;;;;;8.80;7.90;;;;;;;21.24;65.00;98358.41;8348733;28;20208;-92
2021/07/17 00:51:09;;;;;;;11.43;8.13;;;;;;;21.31;64.73;98353.47;8349453;28;20231;-90
2021/07/17 00:55:13;;;;;;;9.30;7.93;;;;;;;21.38;64.54;98359.91;8350837;28;20216;-92
2021/07/17 00:59:18;;;;;;;13.57;8.70;;;;;;;21.25;64.53;98364.53;8355778;28;20211;-92
2021/07/17 01:03:23;;;;;;;10.73;7.80;;;;;;;21.26;64.65;98351.19;8356161;28;20200;-95
2021/07/17 01:07:26;;;;;;;9.43;8.43;;;;;;;21.17;64.96;98349.34;8357656;28;20240;-89
2021/07/17 01:11:29;;;;;;;14.63;9.50;;;;;;;21.13;64.96;98347.06;8355368;28;20232;-86
2021/07/17 01:15:33;;;;;;;14.53;9.43;;;;;;;21.20;64.85;98351.72;8354954;28;20197;-87
2021/07/17 01:19:37;;;;;;;12.60;9.33;;;;;;;21.12;65.26;98345.41;8336768;28;20200;-86
2021/07/17 01:23:44;;;;;;;13.00;10.13;;;;;;;21.08;66.04;98332.50;8353442;28;20208;-87
2021/07/17 01:27:48;;;;;;;13.63;10.60;;;;;;;21.02;65.87;98332.19;8336759;28;20203;-87
2021/07/17 01:31:52;;;;;;;14.70;10.73;;;;;;;20.94;66.31;98331.94;8353076;28;20234;-87
2021/07/17 01:35:55;;;;;;;14.33;11.03;;;;;;;20.93;66.88;98335.56;8353271;28;20268;-86
2021/07/17 01:40:03;;;;;;;14.13;10.90;;;;;;;21.00;66.43;98340.19;8352954;28;20509;-86
2021/07/17 01:44:07;;;;;;;15.67;10.77;;;;;;;21.06;66.29;98337.06;8337362;28;20231;-87
2021/07/17 01:48:12;;;;;;;14.63;11.13;;;;;;;21.04;66.41;98335.50;8335809;28;20396;-87
2021/07/17 01:52:15;;;;;;;14.70;11.33;;;;;;;21.12;66.34;98329.63;8355040;28;20224;-88
2021/07/17 01:56:19;;;;;;;13.67;11.23;;;;;;;21.12;66.19;98332.25;8355479;28;20201;-88
2021/07/17 02:00:23;;;;;;;16.73;11.87;;;;;;;21.16;66.29;98326.59;8352544;28;20201;-87
2021/07/17 02:04:26;;;;;;;16.33;11.57;;;;;;;21.08;66.24;98308.78;8351936;28;20521;-88
2021/07/17 02:08:29;;;;;;;16.13;12.03;;;;;;;21.08;67.20;98318.50;8354179;28;20510;-87
2021/07/17 02:12:33;;;;;;;17.53;12.53;;;;;;;21.04;66.75;98315.28;8334963;28;20291;-88
2021/07/17 02:16:36;;;;;;;16.83;12.80;;;;;;;21.00;67.15;98320.91;8351990;28;20209;-87
2021/07/17 02:20:39;;;;;;;19.20;12.57;;;;;;;21.03;66.97;98310.97;8351933;28;20318;-87
2021/07/17 02:24:42;;;;;;;16.60;11.87;;;;;;;21.12;66.60;98316.47;8351611;28;20204;-89
2021/07/17 02:28:46;;;;;;;15.17;12.07;;;;;;;21.18;66.49;98323.84;8352027;28;20206;-89
2021/07/17 02:32:49;;;;;;;15.63;11.27;;;;;;;21.28;66.68;98322.13;8351890;28;20229;-89
2021/07/17 02:36:52;;;;;;;22.87;13.07;;;;;;;21.19;66.77;98326.34;8351301;28;20204;-88
2021/07/17 02:40:55;;;;;;;16.03;12.57;;;;;;;21.20;66.95;98322.75;8351432;28;20386;-89
2021/07/17 02:44:59;;;;;;;21.13;12.93;;;;;;;21.19;66.91;98329.00;8351232;28;20228;-90
2021/07/17 02:49:02;;;;;;;20.07;12.97;;;;;;;21.21;66.38;98334.97;8351366;28;20211;-89
2021/07/17 02:53:05;;;;;;;18.57;12.57;;;;;;;21.16;66.99;98339.75;8351170;28;20232;-90
2021/07/17 02:57:08;;;;;;;19.70;12.63;;;;;;;21.21;66.44;98344.63;8351271;28;20211;-90
2021/07/17 03:01:12;;;;;;;23.37;14.00;;;;;;;21.16;66.78;98333.66;8354410;28;20197;-90
2021/07/17 03:05:15;;;;;;;20.23;13.73;;;;;;;21.12;66.96;98338.34;8350815;28;20553;-89
2021/07/17 03:09:18;;;;;;;18.13;12.47;;;;;;;21.19;66.69;98323.72;8350078;28;20235;-89
2021/07/17 03:13:21;;;;;;;15.73;12.53;;;;;;;21.17;66.92;98327.44;8350271;28;20244;-88
2021/07/17 03:17:25;;;;;;;20.37;13.60;;;;;;;21.15;66.77;98306.50;8349878;28;20197;-88
2021/07/17 03:21:28;;;;;;;21.90;13.53;;;;;;;21.14;67.07;98304.00;8349763;28;20215;-91
2021/07/17 03:25:31;;;;;;;22.67;13.67;;;;;;;21.16;66.77;98308.16;8350004;28;20222;-90
2021/07/17 03:29:34;;;;;;;27.47;14.57;;;;;;;21.13;66.89;98299.69;8350078;28;20201;-89
2021/07/17 03:33:38;;;;;;;26.00;14.40;;;;;;;21.06;66.68;98302.00;8349679;28;20231;-88
2021/07/17 03:37:41;;;;;;;19.83;13.87;;;;;;;20.95;67.13;98296.78;8349070;28;20204;-88
2021/07/17 03:41:45;;;;;;;26.67;14.37;;;;;;;20.92;67.56;98305.72;8349521;28;20330;-89
2021/07/17 03:45:48;;;;;;;21.13;14.10;;;;;;;20.95;66.69;98309.94;8349727;28;20492;-91
2021/07/17 03:49:52;;;;;;;25.27;15.00;;;;;;;20.99;67.32;98314.81;8349944;28;20215;-87
2021/07/17 03:53:55;;;;;;;24.80;14.43;;;;;;;21.03;66.74;98318.88;8348039;28;20258;-85
2021/07/17 03:57:58;;;;;;;26.00;14.47;;;;;;;21.12;66.39;98325.19;8348700;28;20271;-86
2021/07/17 04:02:01;;;;;;;20.77;14.70;;;;;;;21.12;66.89;98333.09;8348719;28;20197;-86
2021/07/17 04:06:06;;;;;;;23.20;14.70;;;;;;;21.18;66.25;98337.84;8348549;28;20310;-86
2021/07/17 04:10:11;;;;;;;23.90;14.10;;;;;;;21.14;66.53;98336.44;8348658;28;20193;-85
2021/07/17 04:14:14;;;;;;;24.00;13.90;;;;;;;21.08;67.08;98334.31;8348554;28;20227;-86
2021/07/17 04:18:17;;;;;;;25.90;14.67;;;;;;;21.11;66.97;98333.19;8348726;28;20498;-86
2021/07/17 04:22:21;;;;;;;27.77;14.70;;;;;;;20.97;67.18;98322.00;8348873;28;20232;-86
2021/07/17 04:26:24;;;;;;;20.63;14.43;;;;;;;20.95;67.41;98328.38;8348378;28;20208;-86
2021/07/17 04:30:27;;;;;;;21.73;14.13;;;;;;;20.97;67.54;98343.06;8351096;28;20205;-86
2021/07/17 04:34:30;;;;;;;26.53;15.67;;;;;;;20.91;67.79;98340.94;8354881;28;20267;-86
2021/07/17 04:38:34;;;;;;;26.77;15.40;;;;;;;20.89;68.11;98327.88;8354807;28;20208;-86
2021/07/17 04:42:37;;;;;;;25.77;16.00;;;;;;;20.92;68.00;98352.28;8355013;28;20386;-86
2021/07/17 04:46:40;;;;;;;27.53;16.27;;;;;;;20.85;68.71;98351.97;8355349;28;20204;-86
2021/07/17 04:50:43;;;;;;;25.10;14.97;;;;;;;20.86;68.00;98349.19;8354444;28;20206;-86
2021/07/17 04:54:47;;;;;;;25.13;14.93;;;;;;;20.81;68.29;98332.94;8353955;28;20234;-86
2021/07/17 04:58:49;;;;;;;25.50;14.27;;;;;;;20.77;68.77;98330.66;8354471;28;20454;-86
2021/07/17 05:02:55;;;;;;;26.57;15.20;;;;;;;20.84;68.07;98337.94;8354091;28;20514;-85
2021/07/17 05:06:57;;;;;;;25.17;14.40;;;;;;;20.81;67.92;98348.75;8353636;28;20429;-86
2021/07/17 05:11:02;;;;;;;26.40;14.67;;;;;;;20.83;67.70;98344.19;8353702;28;20265;-86
2021/07/17 05:15:10;;;;;;;31.67;16.57;;;;;;;20.84;68.16;98352.91;8353486;28;20431;-86
2021/07/17 05:19:13;;;;;;;28.47;14.60;;;;;;;20.94;67.78;98345.94;8353484;28;20213;-87
2021/07/17 05:23:16;;;;;;;25.47;13.77;;;;;;;20.96;67.84;98345.81;8353353;28;20201;-87
2021/07/17 05:27:20;;;;;;;24.03;13.80;;;;;;;20.99;67.74;98342.94;8353408;28;20200;-88
2021/07/17 05:31:23;;;;;;;25.60;14.50;;;;;;;20.96;67.75;98351.94;8352559;28;20507;-87
2021/07/17 05:35:28;;;;;;;26.83;14.70;;;;;;;20.87;68.36;98348.25;8352943;28;20227;-88
2021/07/17 05:39:30;;;;;;;29.97;15.00;;;;;;;20.91;67.74;98354.09;8353055;28;20501;-88
2021/07/17 05:43:35;;;;;;;29.57;15.80;;;;;;;20.93;68.14;98357.44;8352325;28;20204;-89
2021/07/17 05:47:38;;;;;;;26.87;14.70;;;;;;;20.88;68.50;98365.69;8352998;28;20207;-89
2021/07/17 05:51:40;;;;;;;28.97;14.50;;;;;;;20.95;69.03;98362.59;8352477;28;20202;-86
2021/07/17 05:55:44;;;;;;;28.33;15.17;;;;;;;20.81;69.75;98369.78;8352310;28;20236;-83
2021/07/17 05:59:48;;;;;;;28.60;16.43;;;;;;;20.87;69.73;98363.22;8352084;28;20213;-83
2021/07/17 06:03:51;;;;;;;29.37;15.17;;;;;;;20.95;69.45;98365.22;8351857;28;20217;-85
2021/07/17 06:07:54;;;;;;;29.90;15.27;;;;;;;20.93;69.75;98362.69;8352407;28;20368;-85
2021/07/17 06:11:57;;;;;;;23.33;14.73;;;;;;;21.05;69.44;98359.06;8351876;28;20397;-83
2021/07/17 06:16:01;;;;;;;19.23;13.07;;;;;;;21.11;69.45;98359.53;8351729;28;20239;-84
2021/07/17 06:20:06;;;;;;;22.97;13.60;;;;;;;21.01;69.62;98356.81;8351665;28;20203;-83
2021/07/17 06:24:08;;;;;;;20.87;13.50;;;;;;;21.15;69.33;98372.34;8351469;28;20204;-84
2021/07/17 06:28:11;;;;;;;21.83;14.70;;;;;;;21.03;69.69;98378.59;8351472;28;20211;-86
2021/07/17 06:32:18;;;;;;;22.10;14.57;;;;;;;21.00;69.96;98374.41;8351326;28;20209;-84
2021/07/17 06:36:21;;;;;;;21.27;14.87;;;;;;;21.00;69.62;98377.06;8351421;28;20288;-84
2021/07/17 06:40:24;;;;;;;22.70;14.60;;;;;;;20.95;70.24;98379.22;8351223;28;20202;-85
2021/07/17 06:44:27;;;;;;;22.13;14.50;;;;;;;20.98;69.99;98378.13;8350690;28;20216;-84
2021/07/17 06:48:32;;;;;;;21.00;15.00;;;;;;;21.05;70.44;98379.31;8350590;28;20201;-84
2021/07/17 06:52:35;;;;;;;19.27;13.97;;;;;;;21.02;70.23;98376.94;8349718;28;20331;-85
2021/07/17 06:56:38;;;;;;;20.30;13.87;;;;;;;21.01;70.40;98383.16;8349330;28;20200;-83
2021/07/17 07:00:41;;;;;;;24.27;14.17;;;;;;;21.08;70.43;98389.59;8349953;28;20207;-84
2021/07/17 07:04:45;;;;;;;26.37;14.40;;;;;;;21.18;69.86;98385.25;8350191;28;20245;-83
2021/07/17 07:08:48;;;;;;;28.70;15.93;;;;;;;21.17;70.10;98374.81;8349907;28;20367;-85
2021/07/17 07:12:51;;;;;;;24.03;15.70;;;;;;;21.21;70.06;98386.78;8349903;28;20235;-84
2021/07/17 07:16:55;;;;;;;29.27;14.93;;;;;;;21.37;70.21;98386.38;8349487;28;20447;-83
2021/07/17 07:20:59;;;;;;;27.93;15.33;;;;;;;21.30;70.10;98391.31;8348330;28;20199;-83
2021/07/17 07:25:03;;;;;;;25.03;14.50;;;;;;;21.35;69.75;98389.13;8357583;28;20193;-83
2021/07/17 07:29:06;;;;;;;30.40;16.20;;;;;;;21.26;69.78;98403.06;8353364;28;20204;-85
2021/07/17 07:33:09;;;;;;;27.80;13.70;;;;;;;21.23;70.26;98406.78;8379307;28;20227;-83
2021/07/17 07:37:13;;;;;;;31.93;14.67;;;;;;;21.27;70.02;98397.66;8378899;28;20278;-83
2021/07/17 07:41:16;;;;;;;36.00;15.67;;;;;;;21.33;69.88;98395.50;8381504;28;20196;-83
2021/07/17 07:45:20;;;;;;;30.00;14.73;;;;;;;21.23;70.69;98390.97;8381328;28;20199;-83
2021/07/17 07:49:23;;;;;;;28.30;13.90;;;;;;;21.27;70.48;98395.03;8380784;28;20274;-83
2021/07/17 07:53:27;;;;;;;24.80;13.10;;;;;;;21.31;69.94;98390.34;8351823;28;20527;-83
2021/07/17 07:57:30;;;;;;;26.53;13.97;;;;;;;21.38;69.91;98385.41;8348880;28;20286;-83
2021/07/17 08:01:33;;;;;;;26.60;14.20;;;;;;;21.42;69.78;98379.78;8348690;28;20496;-83
2021/07/17 08:05:36;;;;;;;21.07;12.00;;;;;;;21.50;69.53;98384.44;8350751;28;20234;-84
2021/07/17 08:09:40;;;;;;;21.23;12.80;;;;;;;21.47;69.77;98377.59;8354749;28;20215;-83
2021/07/17 08:13:43;;;;;;;24.70;13.40;;;;;;;21.58;70.04;98378.53;8354327;28;20406;-83
2021/07/17 08:17:46;;;;;;;23.67;12.77;;;;;;;21.71;69.76;98378.34;8354568;28;20373;-83
2021/07/17 08:21:49;;;;;;;24.93;12.77;;;;;;;21.86;69.48;98384.97;8354313;28;20196;-82
2021/07/17 08:25:53;;;;;;;26.63;12.57;;;;;;;22.00;69.09;98386.44;8354590;28;20220;-83
2021/07/17 08:29:56;;;;;;;17.33;10.60;;;;;;;22.29;68.96;98377.88;8354267;28;20193;-81
2021/07/17 08:33:59;;;;;;;19.03;11.53;;;;;;;22.19;69.40;98378.63;8354169;28;20216;-84
2021/07/17 08:38:02;;;;;;;17.77;10.00;;;;;;;22.45;68.22;98386.13;8355175;28;20199;-82
2021/07/17 08:42:06;;;;;;;22.37;11.17;;;;;;;22.53;68.36;98380.19;8354434;28;20196;-84
2021/07/17 08:46:10;;;;;;;17.37;9.90;;;;;;;22.60;67.68;98378.69;8351292;28;20405;-83
2021/07/17 08:50:15;;;;;;;19.97;9.33;;;;;;;22.77;67.49;98372.75;8353884;28;20214;-83
2021/07/17 08:54:18;;;;;;;15.33;9.00;;;;;;;22.89;66.54;98375.28;8353539;28;20223;-85
2021/07/17 08:58:22;;;;;;;20.43;10.30;;;;;;;22.91;67.58;98373.34;8353312;28;20279;-83
2021/07/17 09:02:25;;;;;;;15.83;9.63;;;;;;;22.81;68.44;98378.63;8353084;28;20269;-82
2021/07/17 09:06:28;;;;;;;13.03;8.60;;;;;;;22.94;66.83;98368.63;8352929;28;20427;-83
2021/07/17 09:10:34;;;;;;;20.93;10.10;;;;;;;23.03;66.43;98370.47;8352880;28;20201;-82
2021/07/17 09:14:40;;;;;;;15.93;9.73;;;;;;;22.96;66.22;98379.03;8352247;28;20220;-84
2021/07/17 09:18:46;;;;;;;15.83;8.97;;;;;;;23.04;66.83;98379.25;8351276;28;20470;-86
2021/07/17 09:22:57;;;;;;;15.23;9.33;;;;;;;22.92;66.42;98375.81;8352351;28;20223;-87
2021/07/17 09:27:00;;;;;;;19.23;9.43;;;;;;;22.80;67.81;98380.41;8351772;28;20197;-88
2021/07/17 09:31:05;;;;;;;19.23;9.87;;;;;;;22.88;66.59;98382.34;8351691;28;20498;-85
2021/07/17 09:35:13;;;;;;;18.33;9.13;;;;;;;22.98;67.21;98377.09;8351156;28;20247;-91
2021/07/17 09:39:16;;;;;;;20.47;10.50;;;;;;;22.88;67.29;98370.97;8352372;28;20477;-85
2021/07/17 09:43:40;;;;;;;19.07;10.53;;;;;;;22.74;67.68;98370.38;8352374;28;20200;-87
2021/07/17 09:47:45;;;;;;;19.80;9.30;;;;;;;22.67;67.40;98368.41;8348294;28;20198;-87
2021/07/17 09:51:48;;;;;;;18.43;10.43;;;;;;;22.59;67.85;98377.84;8354456;28;20238;-88
2021/07/17 09:56:05;;;;;;;17.83;10.50;;;;;;;22.58;68.56;98373.53;8362312;28;20231;-87
2021/07/17 10:00:10;;;;;;;18.60;9.93;;;;;;;22.75;68.10;98363.28;8366466;28;20207;-87
2021/07/17 10:04:29;;;;;;;18.80;10.53;;;;;;;22.81;68.00;98360.13;8364546;28;20480;-89
2021/07/17 10:08:34;;;;;;;17.43;9.93;;;;;;;22.54;68.80;98366.88;8353331;28;20200;-88
2021/07/17 10:12:39;;;;;;;19.40;9.93;;;;;;;22.75;68.65;98358.00;8352749;28;20200;-88
2021/07/17 10:16:42;;;;;;;13.67;8.73;;;;;;;22.91;68.44;98353.06;8352209;28;20515;-88
2021/07/17 10:20:46;;;;;;;16.70;8.70;;;;;;;22.91;68.24;98344.31;8352658;28;20200;-88
2021/07/17 10:24:50;;;;;;;14.70;8.70;;;;;;;22.83;66.98;98350.25;8354709;28;20349;-87
2021/07/17 10:28:54;;;;;;;14.17;8.90;;;;;;;22.91;66.47;98352.22;8334023;28;20200;-88
2021/07/17 10:32:58;;;;;;;14.40;8.83;;;;;;;22.98;66.85;98348.91;8351568;28;20207;-88
2021/07/17 10:37:06;;;;;;;15.73;9.07;;;;;;;22.91;66.68;98352.22;8351360;28;20228;-87
2021/07/17 10:41:10;;;;;;;15.87;8.90;;;;;;;22.83;67.48;98347.63;8351446;28;20215;-87
2021/07/17 10:45:13;;;;;;;15.27;8.30;;;;;;;22.70;67.48;98345.22;8351529;28;20499;-87
2021/07/17 10:49:16;;;;;;;15.33;8.60;;;;;;;22.61;68.01;98346.03;8350773;28;20201;-87
2021/07/17 10:53:46;;;;;;;14.90;8.87;;;;;;;22.66;67.61;98349.13;8351103;28;20212;-88
2021/07/17 10:57:49;;;;;;;17.17;10.00;;;;;;;22.59;68.94;98346.16;8350692;28;20208;-87
2021/07/17 11:02:05;;;;;;;14.13;8.67;;;;;;;22.71;68.40;98343.41;8350791;28;20207;-88
2021/07/17 11:06:24;;;;;;;16.90;9.90;;;;;;;22.68;68.95;98330.50;8351434;28;20228;-87
2021/07/17 11:10:41;;;;;;;14.63;10.07;;;;;;;22.70;69.52;98331.19;8350539;28;20212;-87
2021/07/17 11:14:45;;;;;;;15.30;10.20;;;;;;;22.73;69.82;98323.00;8350305;28;20288;-87
2021/07/17 11:18:47;;;;;;;15.33;10.17;;;;;;;22.65;69.63;98324.50;8349878;28;20206;-87
2021/07/17 11:23:00;;;;;;;21.30;11.43;;;;;;;22.77;70.44;98332.31;8350051;28;20214;-88
2021/07/17 11:27:13;;;;;;;18.90;11.97;;;;;;;22.91;69.95;98328.47;8350010;28;20207;-87
2021/07/17 11:32:00;;;;;;;15.10;10.27;;;;;;;22.82;69.87;98322.19;8349980;28;20208;-87
2021/07/17 11:36:24;;;;;;;15.80;10.60;;;;;;;22.58;70.31;98320.75;8349240;28;20364;-87
2021/07/17 11:40:27;;;;;;;14.80;9.97;;;;;;;22.67;69.04;98315.63;8348616;28;20209;-87
2021/07/17 11:44:33;;;;;;;16.47;9.43;;;;;;;22.89;67.95;98330.41;8349880;28;20204;-87
2021/07/17 11:48:41;;;;;;;16.47;9.20;;;;;;;23.06;66.93;98326.28;8349193;28;20270;-88
2021/07/17 11:52:43;;;;;;;12.73;8.23;;;;;;;23.11;67.09;98314.31;8349408;28;20204;-87
2021/07/17 11:57:01;;;;;;;15.10;9.07;;;;;;;23.06;66.00;98326.28;8349026;28;20553;-87
2021/07/17 12:01:05;;;;;;;14.80;9.23;;;;;;;22.93;67.10;98319.41;8349540;28;20202;-87
2021/07/17 12:05:10;;;;;;;13.20;8.70;;;;;;;22.96;66.77;98307.72;8349245;28;20247;-87
2021/07/17 12:09:13;;;;;;;15.47;9.33;;;;;;;22.86;66.49;98310.38;8315312;28;20399;-89
2021/07/17 12:13:20;;;;;;;15.87;6.47;;;;;;;22.82;63.94;98303.69;8334753;28;20199;-90
2021/07/17 12:17:25;;;;;;;15.37;9.33;;;;;;;22.97;65.42;98306.78;8349509;28;20513;-89
2021/07/17 12:21:28;;;;;;;17.80;8.50;;;;;;;23.04;64.92;98302.66;8348502;28;20198;-89
2021/07/17 12:25:34;;;;;;;10.97;7.87;;;;;;;23.29;64.87;98297.78;8348642;28;20278;-90
2021/07/17 12:29:36;;;;;;;16.00;9.80;;;;;;;23.23;66.07;98296.53;8349404;28;20307;-90
2021/07/17 12:33:42;;;;;;;15.20;8.93;;;;;;;23.52;65.02;98291.19;8354715;28;20208;-89
2021/07/17 12:37:45;;;;;;;17.23;9.47;;;;;;;23.61;65.07;98290.34;8352477;28;20224;-95
2021/07/17 12:41:50;;;;;;;16.37;9.43;;;;;;;23.54;64.75;98296.34;8354471;28;20196;-92
2021/07/17 12:46:07;;;;;;;10.70;8.13;;;;;;;23.94;63.33;98300.56;8354276;28;20200;-91
2021/07/17 12:50:11;;;;;;;11.80;8.27;;;;;;;24.36;62.89;98292.16;8353698;28;20196;-93
2021/07/17 12:54:16;;;;;;;13.40;8.40;;;;;;;24.50;62.40;98288.19;8360771;28;20200;-92
2021/07/17 12:58:19;;;;;;;16.13;8.10;;;;;;;24.52;62.10;98280.97;8365013;28;20234;-95
2021/07/17 13:02:22;;;;;;;16.33;9.20;;;;;;;24.18;62.57;98287.66;8362880;28;20193;-94
2021/07/17 13:06:27;;;;;;;16.83;9.07;;;;;;;23.89;63.88;98297.53;8366659;22;20243;-65
2021/07/17 13:10:34;;;;;;;15.17;9.43;;;;;;;23.87;63.82;98292.38;8349842;28;20235;-66
2021/07/17 13:14:39;;;;;;;14.67;9.07;;;;;;;23.89;64.25;98289.59;8350460;28;20605;-65
2021/07/17 13:18:49;;;;;;;16.13;8.90;;;;;;;23.80;64.03;98296.59;8350354;28;20204;-65
2021/07/17 13:23:00;;;;;;;13.10;9.33;;;;;;;23.83;64.74;98295.47;8348975;28;20197;-66
2021/07/17 13:27:03;;;;;;;20.47;9.60;;;;;;;23.76;65.91;98289.88;8350479;28;20201;-66
2021/07/17 13:31:15;;;;;;;15.20;9.33;;;;;;;23.88;64.56;98290.59;8347771;28;20200;-66
2021/07/17 13:35:20;;;;;;;13.77;9.47;;;;;;;23.95;64.34;98289.00;8349940;28;20224;-65
2021/07/17 13:39:25;;;;;;;19.80;10.30;;;;;;;23.84;65.00;98286.53;8349581;28;20193;-66
2021/07/17 13:43:28;;;;;;;14.33;9.27;;;;;;;24.04;64.58;98288.13;8366901;28;20244;-66
2021/07/17 13:47:39;;;;;;;14.83;10.10;;;;;;;24.00;64.37;98284.13;8381666;28;20203;-65
2021/07/17 13:51:42;;;;;;;16.50;9.90;;;;;;;23.95;65.00;98287.22;8366517;28;20247;-66
2021/07/17 13:55:47;;;;;;;14.77;9.83;;;;;;;24.29;63.49;98273.38;8348490;28;20216;-65
2021/07/17 14:00:02;;;;;;;16.27;10.10;;;;;;;24.29;65.02;98265.44;8348436;28;20379;-68
2021/07/17 14:04:05;;;;;;;14.67;10.10;;;;;;;24.39;64.37;98273.38;8348203;28;20378;-67
2021/07/17 14:08:08;;;;;;;16.50;10.63;;;;;;;24.15;64.60;98265.97;8348145;28;20421;-66
2021/07/17 14:12:12;;;;;;;14.07;10.37;;;;;;;24.14;65.15;98265.13;8348325;28;20200;-66
2021/07/17 14:16:15;;;;;;;15.03;10.23;;;;;;;24.07;64.56;98269.34;8350169;28;20390;-67
2021/07/17 14:20:18;;;;;;;18.13;11.30;;;;;;;23.97;65.45;98265.88;8348467;28;20203;-67
2021/07/17 14:24:21;;;;;;;16.93;11.33;;;;;;;24.06;65.26;98266.84;8348466;28;20300;-66
2021/07/17 14:28:25;;;;;;;14.13;10.57;;;;;;;24.18;65.05;98257.75;8348288;28;20213;-66
2021/07/17 14:32:28;;;;;;;17.17;10.50;;;;;;;24.05;65.05;98262.53;8345078;28;20487;-66
2021/07/17 14:36:31;;;;;;;15.73;10.77;;;;;;;24.16;65.15;98262.31;8345519;28;20553;-66
2021/07/17 14:40:35;;;;;;;16.30;11.30;;;;;;;24.15;64.51;98255.38;8347914;28;20199;-66
2021/07/17 14:44:39;;;;;;;17.67;10.60;;;;;;;24.25;64.28;98253.50;8347970;28;20196;-66
2021/07/17 14:48:42;;;;;;;17.00;11.43;;;;;;;24.43;64.82;98250.06;8348040;28;20209;-66
2021/07/17 14:52:45;;;;;;;18.97;11.70;;;;;;;24.49;64.90;98252.94;8349243;28;20208;-66
2021/07/17 14:56:48;;;;;;;16.97;11.27;;;;;;;24.49;64.61;98237.06;8348983;28;20224;-66
2021/07/17 15:00:56;;;;;;;21.03;11.90;;;;;;;24.68;64.54;98248.53;8348746;28;20201;-66
2021/07/17 15:04:59;;;;;;;17.33;11.87;;;;;;;24.81;63.60;98243.69;8348794;28;20457;-66
2021/07/17 15:09:02;;;;;;;16.53;11.37;;;;;;;24.85;63.17;98241.59;8347965;28;20240;-66
2021/07/17 15:13:04;;;;;;;19.27;11.83;;;;;;;24.78;63.03;98244.81;8348210;28;20201;-66
2021/07/17 15:17:08;;;;;;;14.90;11.23;;;;;;;25.01;63.80;98243.53;8347059;28;20247;-67
2021/07/17 15:21:11;;;;;;;19.40;11.73;;;;;;;24.73;64.51;98243.59;8348095;28;20222;-66
2021/07/17 15:25:15;;;;;;;15.73;11.07;;;;;;;24.76;64.25;98244.13;8348644;28;20223;-66
2021/07/17 15:29:18;;;;;;;17.70;11.07;;;;;;;24.69;64.59;98250.19;8348713;28;20532;-66
2021/07/17 15:33:22;;;;;;;19.47;10.83;;;;;;;24.65;64.40;98236.41;8347209;28;20200;-67
2021/07/17 15:37:25;;;;;;;17.70;11.90;;;;;;;25.05;63.65;98234.28;8347926;28;20239;-67
2021/07/17 15:41:28;;;;;;;17.90;11.60;;;;;;;25.30;62.82;98227.38;8347604;28;20197;-66
2021/07/17 15:45:31;;;;;;;15.87;10.50;;;;;;;25.41;62.62;98219.16;8347188;28;20200;-67
2021/07/17 15:49:35;;;;;;;20.60;11.60;;;;;;;25.38;62.87;98208.91;8344696;28;20217;-66
2021/07/17 15:53:38;;;;;;;17.60;11.50;;;;;;;25.29;63.03;98218.59;8347122;28;20202;-67
2021/07/17 15:57:41;;;;;;;21.20;11.83;;;;;;;25.72;63.16;98203.63;8350507;28;20216;-66
2021/07/17 16:01:44;;;;;;;17.90;12.27;;;;;;;25.73;62.88;98209.75;8347256;28;20500;-66
2021/07/17 16:05:48;;;;;;;15.83;11.80;;;;;;;25.80;61.57;98217.88;8370472;28;20227;-66
2021/07/17 16:09:51;;;;;;;14.40;10.90;;;;;;;25.45;61.87;98217.88;8374146;28;20229;-66
2021/07/17 16:13:55;;;;;;;16.13;11.57;;;;;;;25.38;61.04;98211.56;8358603;28;20195;-66
2021/07/17 16:17:58;;;;;;;14.97;11.43;;;;;;;25.23;61.31;98221.06;8370168;28;20297;-67
2021/07/17 16:22:02;;;;;;;16.43;11.50;;;;;;;25.26;60.74;98213.59;8378306;28;20221;-67
2021/07/17 16:26:06;;;;;;;12.60;11.03;;;;;;;25.06;61.09;98218.25;8381835;28;20460;-66
2021/07/17 16:30:10;;;;;;;13.77;11.23;;;;;;;25.01;61.05;98219.69;8387062;28;20200;-66
2021/07/17 16:34:14;;;;;;;12.57;10.73;;;;;;;25.17;61.09;98223.28;8387143;28;20213;-66
2021/07/17 16:38:18;;;;;;;14.70;11.47;;;;;;;25.04;60.31;98220.22;8386531;28;20228;-66
2021/07/17 16:42:20;;;;;;;11.83;10.63;;;;;;;25.07;60.44;98221.72;8386309;28;20200;-67
2021/07/17 16:46:23;;;;;;;11.90;10.17;;;;;;;25.20;60.45;98221.31;8385969;28;20200;-66
2021/07/17 16:50:26;;;;;;;12.40;10.70;;;;;;;24.98;61.50;98219.00;8386219;28;20201;-66
2021/07/17 16:54:30;;;;;;;13.33;11.57;;;;;;;25.14;60.73;98209.53;8369772;28;20234;-67
2021/07/17 16:58:33;;;;;;;15.33;11.23;;;;;;;25.05;61.09;98208.63;8351718;28;20220;-67
2021/07/17 17:02:36;;;;;;;17.40;14.10;;;;;;;25.02;61.64;98206.28;8352624;28;20201;-66
2021/07/17 17:06:39;;;;;;;12.80;11.50;;;;;;;25.06;61.09;98209.47;8353595;28;20245;-67
2021/07/17 17:10:43;;;;;;;14.73;11.50;;;;;;;24.92;61.00;98206.38;8353235;28;20229;-66
2021/07/17 17:14:46;;;;;;;16.80;12.30;;;;;;;24.91;61.19;98214.47;8352711;28;20210;-66
2021/07/17 17:18:49;;;;;;;15.13;11.43;;;;;;;24.78;61.99;98214.88;8352689;28;20385;-66
2021/07/17 17:22:52;;;;;;;12.70;11.20;;;;;;;24.69;62.02;98213.13;8352788;28;20388;-66
2021/07/17 17:26:56;;;;;;;13.60;12.17;;;;;;;24.64;62.14;98207.47;8352092;28;20202;-66
2021/07/17 17:30:58;;;;;;;18.10;13.20;;;;;;;24.62;62.50;98206.75;8350959;28;20201;-65
2021/07/17 17:35:02;;;;;;;16.50;12.83;;;;;;;24.55;63.18;98217.13;8351258;28;20198;-67
2021/07/17 17:39:05;;;;;;;13.97;12.57;;;;;;;24.58;62.60;98220.31;8347305;28;20217;-66
2021/07/17 17:43:09;;;;;;;18.53;13.50;;;;;;;24.56;62.87;98222.28;8350656;28;20201;-68
2021/07/17 17:47:12;;;;;;;14.10;12.03;;;;;;;24.42;63.37;98224.59;8350790;28;20197;-66
2021/07/17 17:51:15;;;;;;;13.93;10.60;;;;;;;24.41;63.48;98229.06;8351111;28;20393;-66
2021/07/17 17:55:18;;;;;;;16.27;12.00;;;;;;;24.35;63.61;98230.47;8349847;28;20200;-67
2021/07/17 17:59:22;;;;;;;24.47;17.37;;;;;;;24.43;63.20;98221.78;8349890;28;20503;-67
2021/07/17 18:03:25;;;;;;;40.27;30.73;;;;;;;24.48;63.46;98231.91;8350624;28;20203;-66
2021/07/17 18:07:28;;;;;;;27.87;23.93;;;;;;;24.48;63.10;98229.28;8347997;28;20261;-66
2021/07/17 18:11:31;;;;;;;24.07;18.47;;;;;;;24.46;63.20;98234.72;8350609;28;20216;-66
2021/07/17 18:15:35;;;;;;;21.17;17.20;;;;;;;24.42;63.40;98232.53;8350295;28;20193;-66
2021/07/17 18:19:38;;;;;;;28.93;22.30;;;;;;;24.36;63.60;98234.78;8350076;28;20414;-70
2021/07/17 18:23:41;;;;;;;17.70;14.63;;;;;;;24.34;64.27;98231.44;8350129;28;20201;-67
2021/07/17 18:27:48;;;;;;;15.97;12.23;;;;;;;24.28;64.41;98231.22;8350307;28;20569;-68
2021/07/17 18:31:52;;;;;;;15.47;12.40;;;;;;;24.22;65.50;98227.34;8349686;28;20478;-69
2021/07/17 18:35:55;;;;;;;14.97;13.33;;;;;;;24.14;66.08;98228.09;8349274;28;20207;-69
2021/07/17 18:39:58;;;;;;;14.90;12.87;;;;;;;24.13;66.05;98226.41;8349208;28;20231;-71
2021/07/17 18:44:00;;;;;;;14.70;12.37;;;;;;;24.08;66.01;98222.53;8348951;28;20272;-70
2021/07/17 18:48:05;;;;;;;13.97;12.20;;;;;;;24.03;65.86;98230.09;8348838;28;20210;-71